Historyczne dane pomiarowe

Dodano dane terminowe – wersja testowa.

Dane z okresu 1951-2019

Wersja bazy: 1.34 [2019-03-16, lista zmian], aktualizacja planowana na 2019-04-15

Dane meteo z obszaru Polski uzyskane na podstawie danych udostępnionych przez Instytut Meteorologii i Gospodarki Wodnej – Państwowy Instytut Badawczy.

 

Wybierz Datę:    

       

TemperaturaWilgotnośćWiatrCiśnienieOpadyŚniegCzas trwania zjawisk
 Stacja t tx tn tng RH VA  wxwx mslp ppp RRR   cm mm wxwxwxwxwxwxwx
1961-08-14 13.9 19.7 8.4 4.4 80.0- 5.3 2.0---- 0.0------------
1961-08-13 14.0 18.3 9.3 5.4 77.5- 3.7 2.7---- 0.0------------
1961-08-12 16.3 21.2 11.5 9.3 88.3- 6.7 3.3---- 0.0------------
1961-08-11 16.1 18.4 14.3 13.1 94.0- 7.3 1.7---- 4.2------------
1961-08-10 17.8 22.7 11.2 7.2 75.8- 5.7 5.0---- 8.1------------
1961-08-09 16.9 22.8 13.3 11.9 82.3- 5.7 2.0---- 0.0------------
1961-08-08 16.2 20.0 9.8 5.6 79.3- 5.7 2.7---- 0.0------------
1961-08-07 15.0 16.0 12.4 11.0 95.5- 7.7 1.7---- 4.9------------
1961-08-06 19.1 27.8 14.2 12.2 75.0- 6.3 3.3---- 12.5------------
1961-08-05 16.2 21.3 12.7 11.9 82.8- 5.0 2.3---- 0.0------------
1961-08-04 13.7 17.9 8.5 4.6 86.5- 7.3 5.3---- 4.5------------
1961-08-03 13.8 17.6 11.9 9.2 92.8- 5.3 1.7---- 10.2------------
1961-08-02 16.5 22.6 10.8 8.6 84.5- 5.0 3.0---- 9.1------------
1961-08-01 14.6 17.6 12.6 9.0 92.3- 7.7 4.0---- 4.6------------
1961-07-31 15.2 16.5 13.2 13.1 89.3- 7.7 4.3---- 16.9------------
1961-07-30 15.5 19.2 9.8 5.7 85.3- 7.0 1.7---- 2.1------------
1961-07-29 14.9 18.3 11.3 9.9 79.8- 7.0 2.0---- 0.0------------
1961-07-28 14.0 16.0 12.1 9.1 94.3- 8.0 3.0---- 4.7------------
1961-07-27 16.6 20.9 14.2 11.6 84.8- 7.3 3.7---- 3.9------------
1961-07-26 15.9 17.8 11.9 10.5 85.5- 8.0 2.3---- 3.6------------
1961-07-25 14.6 17.2 10.5 6.3 80.0- 7.0 2.7---- 1.1------------
1961-07-24 13.9 18.2 11.6 8.7 83.5- 6.0 2.7---- 19.6------------
1961-07-23 15.5 19.2 12.9 12.0 81.0- 7.0 2.7---- 0.0------------
1961-07-22 14.5 17.6 12.3 11.4 88.3- 7.3 1.7---- 13.0------------
1961-07-21 14.5 19.7 11.1 6.2 92.0- 7.3 3.3---- 21.5------------
1961-07-20 16.0 21.8 11.7 7.0 82.5- 2.7 3.0---- 0.0------------
1961-07-19 15.8 20.9 12.0 12.0 82.5- 6.3 3.0---- 5.2------------
1961-07-18 14.3 16.4 12.6 12.5 92.8- 7.7 1.3---- 3.7------------
1961-07-17 15.5 21.8 8.5 5.0 83.3- 6.7 1.7---- 3.3------------
1961-07-16 15.4 17.6 9.7 4.6 82.3- 7.3 2.0---- 0.0------------
1961-07-15 14.4 20.4 11.3 7.4 91.5- 4.7 2.0---- 8.0------------
1961-07-14 14.6 23.2 13.3 14.0 82.0- 7.7 5.0---- 0.0------------
1961-07-13 22.7 27.4 15.7 11.8 69.3- 5.3 7.3---- 24.5------------
1961-07-12 17.7 23.3 13.6 12.2 86.0- 6.0 1.7---- 0.0------------
1961-07-11 14.7 19.8 9.0 6.7 74.0- 6.7 4.3---- 3.2------------
1961-07-10 13.3 17.4 10.6 8.0 82.3- 6.7 2.7---- 0.5------------
1961-07-09 15.6 21.3 12.4 9.7 81.3- 6.3 4.0---- 8.9------------
1961-07-08 13.8 19.1 7.8 3.8 87.3- 7.3 3.0---- 7.5------------
1961-07-07 13.0 17.0 8.5 5.0 80.5- 6.0 4.3---- 4.8------------
1961-07-06 12.0 15.9 7.2 6.5 84.0- 6.7 3.7---- 3.8------------
1961-07-05 13.1 17.6 10.7 11.5 69.8- 6.0 3.3---- 0.0------------
1961-07-04 16.0 20.4 12.5 11.5 82.0- 6.0 4.3---- 0.0------------
1961-07-03 22.4 30.7 14.1 9.0 63.3- 2.7 3.7---- 6.8------------
1961-07-02 20.6 25.8 11.8 6.7 61.8- 0.0 2.3---- 0.0------------
1961-07-01 18.5 24.0 7.9 3.4 74.8- 1.7 1.7---- 0.0------------
1961-06-30 16.0 21.5 9.8 4.9 77.3- 0.0 3.3---- 0.0------------
1961-06-29 15.5 18.2 10.1 7.0 76.5- 5.0 2.7---- 0.0------------
1961-06-28 14.8 22.6 13.1 13.7 63.0- 5.3 6.3---- 0.0------------
1961-06-27 23.7 29.2 16.5 13.6 73.3- 5.3 4.7---- 15.2------------
1961-06-26 19.1 23.5 13.4 8.7 69.0- 0.3 4.0---- 0.0------------
1961-06-25 20.4 26.9 12.9 9.2 59.8- 5.7 2.7---- 0.0------------
1961-06-24 16.7 21.2 12.6 9.8 68.3- 7.3 4.0---- 0.0------------
1961-06-23 17.5 21.9 11.1 9.5 66.3- 4.3 2.7---- 0.0------------
1961-06-22 15.4 19.2 6.4 1.6 68.8- 3.7 2.3---- 0.0------------
1961-06-21 13.6 20.6 8.1 3.6 80.8- 5.3 3.0---- 10.2------------
1961-06-20 13.0 17.7 8.4 8.0 71.0- 4.0 4.0---- 0.0------------
1961-06-19 15.2 20.0 12.6 12.1 62.8- 4.7 5.3---- 0.0------------
1961-06-18 19.9 26.8 15.2 13.2 75.8- 5.3 3.7---- 0.0------------
1961-06-17 17.5 22.1 10.9 10.5 78.8- 6.0 2.0---- 0.0------------
1961-06-16 13.7 16.0 11.2 10.5 86.3- 7.7 4.3---- 1.3------------
282.4 ms

 

Źródłem pochodzenia danych jest Instytut Meteorologii i Gospodarki Wodnej – Państwowy Instytut Badawczy. Dane Instytutu Meteorologii i Gospodarki Wodnej – Państwowego Instytutu Badawczego zostały przetworzone.

Dane źródłowe można odnaleźć na stronie https://dane.imgw.pl